Time;durP1;ratioP1;P1;durP2;ratioP2;P2;SDS_P1;SDS_P2;PMS_P1;PMS_P2;Temp;Humidity;BMP_temperature;BMP_pressure;BME280_temperature;BME280_humidity;BME280_pressure;Samples;Min_cycle;Max_cycle;Signal;HPM_P1;HPM_P2
2021/12/06 00:01:11;;;;;;;27.20;20.57;;;14.50;79.80;;;;;;5207219;28;20045;-31
2021/12/06 00:04:08;;;;;;;22.88;19.88;;;14.50;79.70;;;;;;5207573;28;20420;-31
2021/12/06 00:06:43;;;;;;;21.50;18.07;;;14.50;79.60;;;;;;5207774;28;20041;-31
2021/12/06 00:09:18;;;;;;;21.17;17.60;;;14.50;79.70;;;;;;5208944;28;20049;-30
2021/12/06 00:11:56;;;;;;;21.27;17.80;;;14.50;79.70;;;;;;5208349;28;20041;-33
2021/12/06 00:14:29;;;;;;;21.80;17.90;;;14.50;79.60;;;;;;5208680;28;20476;-34
2021/12/06 00:17:05;;;;;;;22.07;18.47;;;14.50;79.70;;;;;;5207104;28;20534;-32
2021/12/06 00:19:40;;;;;;;22.53;18.70;;;14.50;79.70;;;;;;5208496;28;20045;-32
2021/12/06 00:22:13;;;;;;;22.03;18.67;;;14.40;79.60;;;;;;5208278;28;20072;-34
2021/12/06 00:24:44;;;;;;;23.25;19.58;;;14.40;79.60;;;;;;5208867;28;20117;-34
2021/12/06 00:27:15;;;;;;;24.57;20.07;;;14.40;79.70;;;;;;5208011;28;20458;-32
2021/12/06 00:29:46;;;;;;;23.03;19.03;;;14.40;79.60;;;;;;5208559;28;20048;-31
2021/12/06 00:32:17;;;;;;;22.27;18.00;;;14.40;79.70;;;;;;5208720;28;20041;-32
2021/12/06 00:34:48;;;;;;;22.50;18.10;;;14.40;79.70;;;;;;5207062;28;20053;-31
2021/12/06 00:37:23;;;;;;;21.10;17.50;;;14.40;79.70;;;;;;5208544;28;20107;-31
2021/12/06 00:39:56;;;;;;;24.63;18.77;;;14.40;79.50;;;;;;5206507;28;20128;-32
2021/12/06 00:42:28;;;;;;;23.02;19.33;;;14.40;79.60;;;;;;5208211;28;20037;-32
2021/12/06 00:45:00;;;;;;;21.77;17.45;;;14.40;79.60;;;;;;5206533;28;20438;-33
2021/12/06 00:47:32;;;;;;;21.53;17.90;;;14.40;79.50;;;;;;5208213;28;20041;-31
2021/12/06 00:50:04;;;;;;;24.77;19.67;;;14.40;79.60;;;;;;5207827;28;20498;-34
2021/12/06 00:52:35;;;;;;;24.33;19.17;;;14.40;79.70;;;;;;5207574;28;20076;-31
2021/12/06 00:55:07;;;;;;;22.63;17.60;;;14.40;79.60;;;;;;5206875;28;20064;-31
2021/12/06 00:57:38;;;;;;;22.97;19.10;;;14.40;79.70;;;;;;5207910;28;20088;-31
2021/12/06 01:00:18;;;;;;;23.77;19.80;;;14.30;79.70;;;;;;5206706;28;20084;-31
2021/12/06 01:02:49;;;;;;;24.57;19.93;;;14.30;80.00;;;;;;5206412;28;20087;-31
2021/12/06 01:05:23;;;;;;;23.00;18.80;;;14.30;80.50;;;;;;5189982;28;20132;-31
2021/12/06 01:07:54;;;;;;;26.97;19.90;;;14.30;80.60;;;;;;5207721;28;20042;-31
2021/12/06 01:10:26;;;;;;;26.93;21.43;;;14.30;80.30;;;;;;5206522;28;20049;-31
2021/12/06 01:12:57;;;;;;;27.40;21.63;;;14.30;80.10;;;;;;5207479;28;20049;-32
2021/12/06 01:15:29;;;;;;;27.20;22.23;;;14.30;79.90;;;;;;5168689;28;20108;-33
2021/12/06 01:18:01;;;;;;;29.17;22.37;;;14.30;79.80;;;;;;5184851;28;20058;-33
2021/12/06 01:20:34;;;;;;;28.00;22.25;;;14.40;79.90;;;;;;5184669;28;20104;-34
2021/12/06 01:23:09;;;;;;;31.13;23.70;;;14.30;80.00;;;;;;5184827;28;20052;-34
2021/12/06 01:28:58;;;;;;;28.43;21.77;;;14.30;79.90;;;;;;5184382;28;20050;-31
2021/12/06 01:31:39;;;;;;;29.30;23.23;;;14.30;80.00;;;;;;5184281;28;20144;-30
2021/12/06 01:39:51;;;;;;;37.93;27.63;;;14.30;79.90;;;;;;5184656;28;20050;-31
2021/12/06 01:42:22;;;;;;;36.57;26.67;;;14.30;80.00;;;;;;5184431;28;20092;-31
2021/12/06 01:44:54;;;;;;;29.67;23.23;;;14.30;80.00;;;;;;5184314;28;20050;-31
2021/12/06 01:47:29;;;;;;;34.35;25.35;;;14.30;80.00;;;;;;5203841;28;20050;-34
2021/12/06 01:50:04;;;;;;;32.87;24.27;;;14.30;80.00;;;;;;5207170;28;20049;-31
2021/12/06 01:52:38;;;;;;;26.60;21.63;;;14.30;80.00;;;;;;5206909;28;20436;-31
2021/12/06 01:55:12;;;;;;;28.13;21.40;;;14.30;80.00;;;;;;5206808;28;20472;-31
2021/12/06 01:57:43;;;;;;;27.23;22.50;;;14.30;80.00;;;;;;5207335;28;20052;-32
2021/12/06 02:00:23;;;;;;;30.27;22.87;;;14.30;80.00;;;;;;5207522;28;20045;-31
2021/12/06 02:02:54;;;;;;;30.13;23.37;;;14.30;79.90;;;;;;5206079;28;20116;-33
2021/12/06 02:05:25;;;;;;;29.60;22.13;;;14.30;79.90;;;;;;5205634;28;20432;-32
2021/12/06 02:07:57;;;;;;;28.63;21.43;;;14.30;79.90;;;;;;5206051;28;20048;-34
2021/12/06 02:10:28;;;;;;;27.30;21.07;;;14.30;79.90;;;;;;5207221;28;20116;-31
2021/12/06 02:12:59;;;;;;;26.20;20.83;;;14.30;79.90;;;;;;5205829;28;20129;-32
2021/12/06 02:15:41;;;;;;;26.80;22.10;;;14.30;79.80;;;;;;5206596;28;20050;-32
2021/12/06 02:18:27;;;;;;;24.80;20.37;;;14.30;79.80;;;;;;5190869;28;20045;-33
2021/12/06 02:21:10;;;;;;;32.10;22.57;;;14.20;79.80;;;;;;5191902;28;20537;-31
2021/12/06 02:23:41;;;;;;;31.63;23.35;;;14.20;79.50;;;;;;5206851;28;20045;-31
2021/12/06 02:26:12;;;;;;;33.97;24.67;;;14.20;79.70;;;;;;5206301;28;20038;-32
2021/12/06 02:28:44;;;;;;;28.10;21.87;;;14.20;79.60;;;;;;5206725;28;20120;-31
2021/12/06 02:31:15;;;;;;;27.67;21.93;;;14.20;79.60;;;;;;5206842;28;20129;-34
2021/12/06 02:33:48;;;;;;;26.70;21.13;;;14.20;79.60;;;;;;5205341;28;20088;-32
2021/12/06 02:36:20;;;;;;;27.10;20.85;;;14.20;79.40;;;;;;5205684;28;20049;-33
2021/12/06 02:38:51;;;;;;;27.10;22.07;;;14.20;79.40;;;;;;5206377;28;20048;-32
2021/12/06 02:41:22;;;;;;;29.00;21.77;;;14.20;79.50;;;;;;5208771;28;20526;-34
2021/12/06 02:43:53;;;;;;;28.33;22.93;;;14.20;79.70;;;;;;5209923;28;20475;-31
2021/12/06 02:46:24;;;;;;;27.53;20.70;;;14.20;80.20;;;;;;5211094;28;20095;-33
2021/12/06 02:48:55;;;;;;;27.33;20.97;;;14.20;80.40;;;;;;5192779;28;20041;-31
2021/12/06 02:51:27;;;;;;;25.80;21.50;;;14.20;80.10;;;;;;5210567;28;20048;-31
2021/12/06 02:53:58;;;;;;;26.45;20.63;;;14.20;79.80;;;;;;5209875;28;20069;-32
2021/12/06 02:56:33;;;;;;;27.37;22.27;;;14.20;79.70;;;;;;5210082;28;20072;-31
2021/12/06 02:59:06;;;;;;;28.73;21.37;;;14.20;79.60;;;;;;5209959;28;20183;-31
2021/12/06 03:01:37;;;;;;;28.45;22.20;;;14.20;79.70;;;;;;5209850;28;20046;-32
2021/12/06 03:04:08;;;;;;;28.20;21.73;;;14.20;79.60;;;;;;5210436;28;20080;-34
2021/12/06 03:06:42;;;;;;;26.17;22.13;;;14.20;79.60;;;;;;5209849;28;20041;-34
2021/12/06 03:09:17;;;;;;;26.23;20.20;;;14.20;79.70;;;;;;5209741;28;20099;-32
2021/12/06 03:12:00;;;;;;;25.70;20.77;;;14.20;79.70;;;;;;5208540;28;20131;-33
2021/12/06 03:14:37;;;;;;;27.65;20.33;;;14.20;79.60;;;;;;5209719;28;20479;-32
2021/12/06 03:17:09;;;;;;;24.87;20.20;;;14.20;79.70;;;;;;5208237;28;20054;-32
2021/12/06 03:19:41;;;;;;;30.08;23.45;;;14.20;79.60;;;;;;5209577;28;20059;-32
2021/12/06 03:22:12;;;;;;;27.67;21.10;;;14.20;79.60;;;;;;5208255;28;20124;-31
2021/12/06 03:24:44;;;;;;;27.97;21.53;;;14.20;79.70;;;;;;5210282;28;20434;-35
2021/12/06 03:27:15;;;;;;;26.30;20.90;;;14.20;79.90;;;;;;5209872;28;20116;-33
2021/12/06 03:29:46;;;;;;;26.33;21.93;;;14.20;79.80;;;;;;5209659;28;20038;-33
2021/12/06 03:32:17;;;;;;;27.60;21.70;;;14.20;79.90;;;;;;5209200;28;20052;-32
2021/12/06 03:34:48;;;;;;;27.73;21.60;;;14.20;80.50;;;;;;5209179;28;20046;-34
2021/12/06 03:37:19;;;;;;;26.73;21.17;;;14.20;80.20;;;;;;5209165;28;20435;-31
2021/12/06 03:39:50;;;;;;;26.90;20.73;;;14.20;80.10;;;;;;5208011;28;20051;-34
2021/12/06 03:42:22;;;;;;;27.90;22.20;;;14.20;80.10;;;;;;5209171;28;20045;-31
2021/12/06 03:44:53;;;;;;;26.67;21.67;;;14.20;80.30;;;;;;5208953;28;20495;-34
2021/12/06 03:47:28;;;;;;;28.67;21.33;;;14.20;80.20;;;;;;5207656;28;20049;-30
2021/12/06 03:49:59;;;;;;;29.40;21.90;;;14.20;80.20;;;;;;5208971;28;20442;-32
2021/12/06 03:52:30;;;;;;;29.87;21.80;;;14.20;80.20;;;;;;5208719;28;20057;-31
2021/12/06 03:55:03;;;;;;;26.83;21.37;;;14.20;80.30;;;;;;5207740;28;20120;-32
2021/12/06 03:57:33;;;;;;;28.90;21.47;;;14.20;80.40;;;;;;5207719;28;20054;-32
2021/12/06 04:00:06;;;;;;;30.77;22.00;;;14.20;80.40;;;;;;5208463;28;20993;-31
2021/12/06 04:02:38;;;;;;;30.93;22.03;;;14.20;80.40;;;;;;5209398;28;20107;-32
2021/12/06 04:05:09;;;;;;;28.13;19.87;;;14.20;80.40;;;;;;5208425;28;20050;-31
2021/12/06 04:07:40;;;;;;;26.50;20.70;;;14.20;80.40;;;;;;5207708;28;20052;-32
2021/12/06 04:10:11;;;;;;;27.73;20.77;;;14.20;80.40;;;;;;5208505;28;20471;-31
2021/12/06 04:12:42;;;;;;;30.93;21.40;;;14.20;80.60;;;;;;5207357;28;20052;-34
2021/12/06 04:15:14;;;;;;;28.47;19.97;;;14.20;80.50;;;;;;5207327;28;20112;-31
2021/12/06 04:17:45;;;;;;;29.07;20.97;;;14.20;80.30;;;;;;5208369;28;20536;-32
2021/12/06 04:20:16;;;;;;;27.00;20.07;;;14.10;80.30;;;;;;5208761;28;20072;-31
2021/12/06 04:22:47;;;;;;;27.37;20.13;;;14.20;80.50;;;;;;5207084;28;20046;-32
2021/12/06 04:25:19;;;;;;;28.23;20.93;;;14.20;80.40;;;;;;5208453;28;20056;-32
2021/12/06 04:27:59;;;;;;;28.60;20.73;;;14.10;80.40;;;;;;5207991;28;20056;-31
2021/12/06 04:30:30;;;;;;;30.00;22.07;;;14.10;80.70;;;;;;5208410;28;20049;-32
2021/12/06 04:33:01;;;;;;;24.70;18.83;;;14.10;81.10;;;;;;5208903;28;20042;-32
2021/12/06 04:35:33;;;;;;;27.13;20.33;;;14.10;81.00;;;;;;5207750;28;20449;-32
2021/12/06 04:38:04;;;;;;;27.23;19.57;;;14.10;80.80;;;;;;5185890;28;20058;-33
2021/12/06 04:40:36;;;;;;;25.03;18.70;;;14.10;80.40;;;;;;5185679;28;20132;-33
2021/12/06 04:43:08;;;;;;;26.97;18.57;;;14.10;80.40;;;;;;5169077;28;20132;-31
2021/12/06 04:45:40;;;;;;;25.88;18.48;;;14.10;80.30;;;;;;5168849;28;20066;-31
2021/12/06 04:48:10;;;;;;;26.60;19.20;;;14.10;80.10;;;;;;5185322;28;20098;-32
2021/12/06 04:50:42;;;;;;;30.37;19.83;;;14.10;80.20;;;;;;5168999;28;20095;-32
2021/12/06 04:53:17;;;;;;;27.23;19.27;;;14.10;80.10;;;;;;5185255;28;20065;-31
2021/12/06 04:56:01;;;;;;;23.60;18.10;;;14.20;80.10;;;;;;5169032;28;20046;-32
2021/12/06 04:58:39;;;;;;;24.70;18.57;;;14.20;80.20;;;;;;5170930;28;20403;-32
2021/12/06 05:01:11;;;;;;;24.43;17.70;;;14.10;80.10;;;;;;5185251;28;20495;-32
2021/12/06 05:03:42;;;;;;;24.77;18.15;;;14.10;80.10;;;;;;5185035;28;20062;-32
2021/12/06 05:06:20;;;;;;;27.70;19.33;;;14.10;80.00;;;;;;5185552;28;20432;-32
2021/12/06 05:08:55;;;;;;;25.70;18.17;;;14.10;80.00;;;;;;5195054;28;20068;-32
2021/12/06 05:11:27;;;;;;;25.90;18.93;;;14.10;79.90;;;;;;5189803;28;20057;-31
2021/12/06 05:14:00;;;;;;;24.90;17.17;;;14.10;80.00;;;;;;5206453;28;20402;-33
2021/12/06 05:16:33;;;;;;;25.07;18.07;;;14.10;79.90;;;;;;5206407;28;20540;-34
2021/12/06 05:19:04;;;;;;;24.83;18.08;;;14.10;79.80;;;;;;5207074;28;20110;-32
2021/12/06 05:21:36;;;;;;;24.57;18.67;;;14.10;79.60;;;;;;5207419;28;20116;-34
2021/12/06 05:24:07;;;;;;;23.83;17.47;;;14.20;79.50;;;;;;5206206;28;20133;-33
2021/12/06 05:26:38;;;;;;;23.53;18.33;;;14.20;79.50;;;;;;5206925;28;20049;-32
2021/12/06 05:29:09;;;;;;;24.87;18.93;;;14.20;79.50;;;;;;5190002;28;20403;-34
2021/12/06 05:31:41;;;;;;;24.30;18.17;;;14.10;79.20;;;;;;5206890;28;20038;-31
2021/12/06 05:34:17;;;;;;;25.90;19.20;;;14.20;79.30;;;;;;5206917;28;20406;-32
2021/12/06 05:36:48;;;;;;;25.03;17.60;;;14.20;79.20;;;;;;5208061;28;20049;-31
2021/12/06 05:39:19;;;;;;;26.30;18.30;;;14.20;79.30;;;;;;5206078;28;20067;-32
2021/12/06 05:41:50;;;;;;;27.17;18.03;;;14.20;79.10;;;;;;5207092;28;20048;-31
2021/12/06 05:44:21;;;;;;;26.07;17.67;;;14.20;79.10;;;;;;5207404;28;20476;-32
2021/12/06 05:46:52;;;;;;;26.83;18.30;;;14.20;78.90;;;;;;5206842;28;20049;-31
2021/12/06 05:49:23;;;;;;;27.43;18.80;;;14.20;79.00;;;;;;5206588;28;20152;-31
2021/12/06 05:51:55;;;;;;;27.33;18.33;;;14.10;78.90;;;;;;5205721;28;20171;-30
2021/12/06 05:54:26;;;;;;;25.87;18.20;;;14.10;79.40;;;;;;5206679;28;20056;-31
2021/12/06 05:56:57;;;;;;;24.83;17.47;;;14.10;79.40;;;;;;5206972;28;20390;-31
2021/12/06 05:59:28;;;;;;;23.70;16.63;;;14.10;79.40;;;;;;5206972;28;20124;-31
2021/12/06 06:01:59;;;;;;;23.30;17.40;;;14.20;79.30;;;;;;5205880;28;20088;-31
2021/12/06 06:04:29;;;;;;;25.63;18.17;;;14.20;79.20;;;;;;5206376;28;20076;-34
2021/12/06 06:07:01;;;;;;;27.57;18.60;;;14.20;79.10;;;;;;5206583;28;20061;-31
2021/12/06 06:09:32;;;;;;;21.87;16.30;;;14.30;79.10;;;;;;5207256;28;20050;-31
2021/12/06 06:12:04;;;;;;;25.23;17.43;;;14.30;79.10;;;;;;5206669;28;20042;-31
2021/12/06 06:14:35;;;;;;;24.63;16.70;;;14.30;79.40;;;;;;5208964;28;20077;-31
2021/12/06 06:17:12;;;;;;;23.57;15.87;;;14.30;79.00;;;;;;5210629;28;20132;-33
2021/12/06 06:19:49;;;;;;;22.57;16.40;;;14.30;78.90;;;;;;5211285;28;20487;-31
2021/12/06 06:22:20;;;;;;;24.23;17.43;;;14.30;78.80;;;;;;5211044;28;20042;-30
2021/12/06 06:24:51;;;;;;;20.57;15.63;;;14.30;78.90;;;;;;5211236;28;20072;-32
2021/12/06 06:27:22;;;;;;;24.17;17.03;;;14.30;78.80;;;;;;5210558;28;20497;-30
2021/12/06 06:29:55;;;;;;;23.83;17.73;;;14.40;78.40;;;;;;5210815;28;20179;-30
2021/12/06 06:32:26;;;;;;;26.73;17.83;;;14.40;78.30;;;;;;5210728;28;20479;-29
2021/12/06 06:34:56;;;;;;;24.00;17.17;;;14.60;78.20;;;;;;5210306;28;20102;-30
2021/12/06 06:37:28;;;;;;;25.63;16.90;;;14.70;78.10;;;;;;5208855;28;20045;-31
2021/12/06 06:39:59;;;;;;;27.00;18.40;;;14.80;77.80;;;;;;5210253;28;20125;-30
2021/12/06 06:42:30;;;;;;;27.87;19.30;;;13.30;79.20;;;;;;5210247;28;20045;-31
2021/12/06 06:45:00;;;;;;;29.80;19.67;;;11.70;83.40;;;;;;5210292;28;20059;-33
2021/12/06 06:47:31;;;;;;;;;;;10.90;84.90;;;;;;5210875;28;20494;-31
2021/12/06 06:50:03;;;;;;;23.77;16.57;;;10.40;85.50;;;;;;5192840;28;19920;-31
2021/12/06 06:52:34;;;;;;;22.73;16.27;;;10.20;86.60;;;;;;5209981;28;20045;-32
2021/12/06 06:55:09;;;;;;;24.83;18.07;;;10.10;87.30;;;;;;5210238;28;20102;-30
2021/12/06 06:57:45;;;;;;;25.30;17.57;;;10.00;87.00;;;;;;5176647;28;20057;-32
2021/12/06 07:00:19;;;;;;;25.20;16.10;;;9.80;87.60;;;;;;5210020;28;20046;-32
2021/12/06 07:02:50;;;;;;;22.90;16.40;;;9.80;88.40;;;;;;5209707;28;20049;-31
2021/12/06 07:05:21;;;;;;;26.10;16.80;;;9.70;87.90;;;;;;5209875;28;20076;-29
2021/12/06 07:07:52;;;;;;;23.37;15.63;;;9.70;88.40;;;;;;5209243;28;20120;-30
2021/12/06 07:10:23;;;;;;;23.73;17.13;;;9.60;88.80;;;;;;5209632;28;20156;-31
2021/12/06 07:12:55;;;;;;;24.10;17.20;;;9.60;88.70;;;;;;5192092;28;20052;-30
2021/12/06 07:15:28;;;;;;;28.17;18.13;;;9.60;88.70;;;;;;5208417;28;20048;-30
2021/12/06 07:18:00;;;;;;;26.58;18.60;;;9.60;88.50;;;;;;5208349;28;20492;-30
2021/12/06 07:20:32;;;;;;;23.93;16.23;;;9.60;89.00;;;;;;5208663;28;20046;-29
2021/12/06 07:23:03;;;;;;;24.53;16.57;;;9.50;88.70;;;;;;5209537;28;20090;-33
2021/12/06 07:25:36;;;;;;;27.47;17.33;;;9.50;89.80;;;;;;5207974;28;20106;-31
2021/12/06 07:28:09;;;;;;;;;;;9.40;89.00;;;;;;5208738;28;20042;-32
2021/12/06 07:30:40;;;;;;;27.83;17.93;;;9.40;89.30;;;;;;5208230;28;19931;-33
2021/12/06 07:33:11;;;;;;;23.47;16.47;;;9.40;88.80;;;;;;5209281;28;20057;-33
2021/12/06 07:35:42;;;;;;;23.00;15.43;;;9.30;88.90;;;;;;5207906;28;20046;-30
2021/12/06 07:38:13;;;;;;;22.23;16.30;;;9.30;89.50;;;;;;5208131;28;20049;-30
2021/12/06 07:40:45;;;;;;;23.20;16.87;;;9.20;89.40;;;;;;5209144;28;20045;-30
2021/12/06 07:43:17;;;;;;;26.80;17.33;;;9.20;89.90;;;;;;5207677;28;20555;-33
2021/12/06 07:45:48;;;;;;;24.83;16.97;;;9.20;89.30;;;;;;5209150;28;20555;-31
2021/12/06 07:48:19;;;;;;;25.60;17.33;;;9.10;90.00;;;;;;5191658;28;20049;-30
2021/12/06 07:50:50;;;;;;;24.07;16.60;;;9.10;89.90;;;;;;5209468;28;20047;-33
2021/12/06 07:53:23;;;;;;;24.80;17.63;;;9.10;90.00;;;;;;5208816;28;20041;-31
2021/12/06 07:55:53;;;;;;;25.77;17.07;;;9.10;89.90;;;;;;5209192;28;20472;-33
2021/12/06 07:58:25;;;;;;;24.20;16.87;;;9.00;89.70;;;;;;5208894;28;20045;-32
2021/12/06 08:00:55;;;;;;;23.87;17.03;;;9.00;89.90;;;;;;5207680;28;20042;-30
2021/12/06 08:03:30;;;;;;;23.70;15.87;;;9.00;89.80;;;;;;5208906;28;20065;-33
2021/12/06 08:06:01;;;;;;;24.87;17.40;;;9.00;90.10;;;;;;5208705;28;20079;-32
2021/12/06 08:08:33;;;;;;;25.03;18.30;;;8.90;89.60;;;;;;5208134;28;20069;-31
2021/12/06 08:11:10;;;;;;;24.87;17.57;;;8.90;89.60;;;;;;5207394;28;20472;-30
2021/12/06 08:13:45;;;;;;;24.83;16.63;;;8.90;90.20;;;;;;5208321;28;20048;-33
2021/12/06 08:16:18;;;;;;;26.73;15.67;;;9.20;90.20;;;;;;5208343;28;20403;-31
2021/12/06 08:18:49;;;;;;;24.42;17.83;;;9.80;89.00;;;;;;5204748;28;20404;-32
2021/12/06 08:21:21;;;;;;;25.50;16.93;;;10.40;87.50;;;;;;5206110;28;20045;-33
2021/12/06 08:23:53;;;;;;;28.38;18.63;;;10.90;86.20;;;;;;5206277;28;20455;-30
2021/12/06 08:26:27;;;;;;;32.80;22.33;;;11.30;85.00;;;;;;5207224;28;20042;-36
2021/12/06 08:28:59;;;;;;;26.93;19.43;;;11.60;83.90;;;;;;5208193;28;20041;-34
2021/12/06 08:31:30;;;;;;;24.97;17.90;;;11.90;83.40;;;;;;5208011;28;20518;-34
2021/12/06 08:34:02;;;;;;;24.93;16.83;;;12.10;82.80;;;;;;5207879;28;20099;-32
2021/12/06 08:36:33;;;;;;;23.03;17.10;;;12.30;82.40;;;;;;5207255;28;20450;-32
2021/12/06 08:39:04;;;;;;;24.03;17.67;;;12.50;81.80;;;;;;5206988;28;20407;-33
2021/12/06 08:41:35;;;;;;;25.33;17.57;;;12.60;81.50;;;;;;5206147;28;20042;-33
2021/12/06 08:44:06;;;;;;;23.60;16.70;;;12.80;81.20;;;;;;5207478;28;20462;-31
2021/12/06 08:46:39;;;;;;;23.60;16.73;;;12.90;81.00;;;;;;5207644;28;20069;-31
2021/12/06 08:49:10;;;;;;;;;;;12.90;80.70;;;;;;5190742;28;20069;-33
2021/12/06 08:51:53;;;;;;;23.67;16.37;;;13.00;80.40;;;;;;5206132;28;19960;-32
2021/12/06 08:54:29;;;;;;;21.55;16.17;;;13.10;80.10;;;;;;5207968;28;20044;-31
2021/12/06 08:57:01;;;;;;;23.67;16.70;;;13.10;79.80;;;;;;5207585;28;20403;-33
2021/12/06 08:59:32;;;;;;;22.75;16.50;;;13.20;79.90;;;;;;5207414;28;20064;-33
2021/12/06 09:02:03;;;;;;;23.87;16.57;;;13.30;79.80;;;;;;5207161;28;20045;-30
2021/12/06 09:04:37;;;;;;;24.37;17.07;;;13.30;79.60;;;;;;5208785;28;20073;-33
2021/12/06 09:07:13;;;;;;;22.87;15.73;;;13.40;79.60;;;;;;5207914;28;20065;-33
2021/12/06 09:09:48;;;;;;;23.27;16.43;;;13.40;79.10;;;;;;5207397;28;20495;-30
2021/12/06 09:12:22;;;;;;;22.97;17.00;;;13.40;79.10;;;;;;5206245;28;20137;-31
2021/12/06 09:14:54;;;;;;;24.13;16.67;;;13.50;79.10;;;;;;5206204;28;20124;-32
2021/12/06 09:17:25;;;;;;;22.47;16.67;;;13.50;79.00;;;;;;5207138;28;20403;-34
2021/12/06 09:19:56;;;;;;;25.40;17.03;;;13.50;78.80;;;;;;5206213;28;20436;-33
2021/12/06 09:22:27;;;;;;;24.03;17.30;;;13.60;78.70;;;;;;5207140;28;20125;-33
2021/12/06 09:24:58;;;;;;;25.93;19.10;;;13.60;78.70;;;;;;5205653;28;20045;-35
2021/12/06 09:27:29;;;;;;;23.20;17.63;;;13.60;78.70;;;;;;5207227;28;20056;-34
2021/12/06 09:30:00;;;;;;;24.57;17.93;;;13.60;78.70;;;;;;5207104;28;20120;-31
2021/12/06 09:32:32;;;;;;;21.83;17.53;;;13.60;78.70;;;;;;5206780;28;20050;-31
2021/12/06 09:35:04;;;;;;;21.90;16.43;;;13.60;78.30;;;;;;5205723;28;20049;-31
2021/12/06 09:37:37;;;;;;;22.53;15.73;;;13.60;78.10;;;;;;5206924;28;20056;-31
2021/12/06 09:40:09;;;;;;;22.52;16.92;;;13.60;78.10;;;;;;5207157;28;20091;-31
2021/12/06 09:42:42;;;;;;;22.23;15.90;;;13.70;77.80;;;;;;5205805;28;20107;-31
2021/12/06 09:45:17;;;;;;;20.63;15.60;;;13.70;77.60;;;;;;5206860;28;20076;-31
2021/12/06 09:47:52;;;;;;;24.30;17.93;;;13.70;77.90;;;;;;5206881;28;20506;-32
2021/12/06 09:50:30;;;;;;;28.57;21.23;;;13.80;77.70;;;;;;5209473;28;20471;-31
2021/12/06 09:53:06;;;;;;;19.93;15.27;;;13.80;77.70;;;;;;5194481;28;20060;-31
2021/12/06 09:55:37;;;;;;;22.52;16.25;;;13.80;77.40;;;;;;5211374;28;20117;-31
2021/12/06 09:58:08;;;;;;;21.20;16.43;;;13.90;77.50;;;;;;5210749;28;20484;-31
2021/12/06 10:00:44;;;;;;;20.30;14.27;;;14.00;77.20;;;;;;5211011;28;20124;-31
2021/12/06 10:03:21;;;;;;;18.27;15.63;;;14.00;77.20;;;;;;5210520;28;20052;-31
2021/12/06 10:05:52;;;;;;;17.97;14.23;;;14.10;77.20;;;;;;5193961;28;20053;-31
2021/12/06 10:08:23;;;;;;;18.83;15.27;;;14.10;77.10;;;;;;5210563;28;20116;-31
2021/12/06 10:10:54;;;;;;;18.40;15.43;;;14.10;77.20;;;;;;5209347;28;20046;-32
2021/12/06 10:13:25;;;;;;;17.97;14.73;;;14.10;77.10;;;;;;5193321;28;20059;-34
2021/12/06 10:15:56;;;;;;;18.63;14.27;;;14.20;77.20;;;;;;5192851;28;20049;-31
2021/12/06 10:18:30;;;;;;;17.80;14.83;;;14.20;76.90;;;;;;5210775;28;20060;-31
2021/12/06 10:21:02;;;;;;;17.07;13.90;;;14.10;76.90;;;;;;5209148;28;20048;-33
2021/12/06 10:23:37;;;;;;;20.13;15.07;;;14.20;76.90;;;;;;5209418;28;20058;-33
2021/12/06 10:26:11;;;;;;;17.10;13.90;;;14.10;77.10;;;;;;5210777;28;20058;-31
2021/12/06 10:28:43;;;;;;;17.67;14.47;;;14.10;76.90;;;;;;5210460;28;20175;-31
2021/12/06 10:31:15;;;;;;;15.47;12.80;;;14.10;77.00;;;;;;5210278;28;20056;-31
2021/12/06 10:33:46;;;;;;;15.83;12.67;;;14.10;76.70;;;;;;5192607;28;20049;-31
2021/12/06 10:36:21;;;;;;;15.17;12.53;;;14.10;76.60;;;;;;5210176;28;20048;-33
2021/12/06 10:39:03;;;;;;;17.43;13.90;;;14.10;76.60;;;;;;5178261;28;20041;-30
2021/12/06 10:41:35;;;;;;;17.67;14.00;;;14.10;76.70;;;;;;5208738;28;20053;-32
2021/12/06 10:44:09;;;;;;;17.43;13.63;;;14.10;76.60;;;;;;5209398;28;20415;-31
2021/12/06 10:46:43;;;;;;;16.07;12.73;;;14.10;76.80;;;;;;5209955;28;20041;-32
2021/12/06 10:49:21;;;;;;;18.52;13.32;;;14.10;76.70;;;;;;5208554;28;20045;-31
2021/12/06 10:51:53;;;;;;;16.00;12.63;;;14.10;76.90;;;;;;5209774;28;20041;-30
2021/12/06 10:54:34;;;;;;;15.93;12.80;;;14.10;76.60;;;;;;5209383;28;20053;-31
2021/12/06 10:57:09;;;;;;;16.40;12.83;;;14.10;76.60;;;;;;5209790;28;20045;-31
2021/12/06 10:59:41;;;;;;;18.30;13.13;;;14.20;76.60;;;;;;5204434;28;20045;-33
2021/12/06 11:02:12;;;;;;;18.03;14.60;;;14.20;76.40;;;;;;5205976;28;20041;-31
2021/12/06 11:04:43;;;;;;;18.07;13.67;;;14.20;76.60;;;;;;5208001;28;20400;-31
2021/12/06 11:07:15;;;;;;;17.17;14.53;;;14.20;76.70;;;;;;5209677;28;20540;-31
2021/12/06 11:09:46;;;;;;;17.17;15.03;;;14.20;76.70;;;;;;5209830;28;20124;-33
2021/12/06 11:12:19;;;;;;;17.00;13.50;;;14.20;76.50;;;;;;5209768;28;20052;-33
2021/12/06 11:14:50;;;;;;;18.07;14.87;;;14.20;76.50;;;;;;5208109;28;20049;-31
2021/12/06 11:17:22;;;;;;;20.93;16.47;;;14.20;76.40;;;;;;5209309;28;20059;-31
2021/12/06 11:19:54;;;;;;;18.53;13.87;;;14.20;76.30;;;;;;5208091;28;20041;-31
2021/12/06 11:22:26;;;;;;;20.38;15.18;;;14.30;76.40;;;;;;5209209;28;20407;-30
2021/12/06 11:24:57;;;;;;;17.53;12.67;;;14.20;76.50;;;;;;5209150;28;20061;-31
2021/12/06 11:27:30;;;;;;;16.33;13.03;;;14.20;76.20;;;;;;5209029;28;20076;-32
2021/12/06 11:30:07;;;;;;;17.02;14.07;;;14.20;76.20;;;;;;5208927;28;20041;-31
2021/12/06 11:32:43;;;;;;;16.13;14.37;;;14.20;76.20;;;;;;5209555;28;20041;-31
2021/12/06 11:35:19;;;;;;;19.70;15.13;;;14.20;76.20;;;;;;5207398;28;20056;-31
2021/12/06 11:37:55;;;;;;;19.17;14.63;;;14.20;76.50;;;;;;5208550;28;20053;-33
2021/12/06 11:40:31;;;;;;;24.00;16.10;;;14.20;76.60;;;;;;5208534;28;20046;-32
2021/12/06 11:43:07;;;;;;;20.43;15.07;;;14.20;76.50;;;;;;5191550;28;20099;-32
2021/12/06 11:45:58;;;;;;;19.10;13.73;;;14.20;76.80;;;;;;5191116;28;20060;-33
2021/12/06 11:48:30;;;;;;;17.07;14.23;;;14.20;76.70;;;;;;5208293;28;20406;-32
2021/12/06 11:51:12;;;;;;;15.55;12.63;;;14.20;76.70;;;;;;5208298;28;20050;-34
2021/12/06 11:53:48;;;;;;;20.10;15.57;;;14.20;76.50;;;;;;5208363;28;20605;-32
2021/12/06 11:56:22;;;;;;;18.77;15.03;;;13.20;77.10;;;;;;5208015;28;20072;-31
2021/12/06 11:58:56;;;;;;;21.47;16.67;;;11.60;80.80;;;;;;5190566;28;20047;-31
2021/12/06 12:01:33;;;;;;;21.05;16.02;;;10.60;83.30;;;;;;5208618;28;20128;-31
2021/12/06 12:04:12;;;;;;;21.13;17.23;;;10.20;85.00;;;;;;5208429;28;20099;-31
2021/12/06 12:06:47;;;;;;;20.47;15.47;;;9.90;86.70;;;;;;5208256;28;20033;-30
2021/12/06 12:09:23;;;;;;;19.23;14.77;;;9.70;87.50;;;;;;5208489;28;20045;-31
2021/12/06 12:12:05;;;;;;;18.60;14.87;;;10.00;87.40;;;;;;5207504;28;20124;-31
2021/12/06 12:14:55;;;;;;;21.13;16.80;;;10.60;86.00;;;;;;5208773;28;20048;-31
2021/12/06 12:17:32;;;;;;;19.87;15.83;;;11.30;84.70;;;;;;5207832;28;20128;-31
2021/12/06 12:20:12;;;;;;;19.73;14.87;;;11.70;83.50;;;;;;5179821;28;411801;-31
2021/12/06 12:22:49;;;;;;;21.50;15.73;;;12.10;82.50;;;;;;5207897;28;20050;-31
2021/12/06 12:25:28;;;;;;;;;;;12.40;81.80;;;;;;5208628;28;20052;-31
2021/12/06 12:31:08;;;;;;;;;;;12.80;80.90;;;;;;5174851;28;19923;-32
2021/12/06 12:33:39;;;;;;;;;;;13.00;80.50;;;;;;5157264;28;20025;-34
2021/12/06 12:36:13;;;;;;;18.43;15.00;;;13.10;80.40;;;;;;5128744;28;19958;-32
2021/12/06 12:38:45;;;;;;;;;;;13.10;79.90;;;;;;5145439;28;20567;-34
2021/12/06 12:41:18;;;;;;;17.93;15.13;;;13.20;79.70;;;;;;5128764;28;20109;-31
2021/12/06 12:43:54;;;;;;;18.88;14.45;;;13.30;80.00;;;;;;5112739;28;20043;-31
2021/12/06 12:46:33;;;;;;;21.17;15.23;;;13.30;79.40;;;;;;5128818;28;20158;-31
2021/12/06 12:49:10;;;;;;;17.83;14.20;;;13.40;79.20;;;;;;5104847;29;20143;-32
2021/12/06 12:51:53;;;;;;;17.27;13.67;;;13.40;79.00;;;;;;5089654;29;20094;-31
2021/12/06 12:54:27;;;;;;;17.92;14.00;;;13.50;78.60;;;;;;5104847;29;20513;-30
2021/12/06 12:57:14;;;;;;;16.70;13.07;;;13.50;78.30;;;;;;5103872;29;20457;-34
2021/12/06 12:59:54;;;;;;;16.47;13.13;;;13.50;78.30;;;;;;5104524;29;20083;-34
2021/12/06 13:02:31;;;;;;;16.97;14.03;;;13.60;78.20;;;;;;5103919;29;20055;-33
2021/12/06 13:05:10;;;;;;;17.83;13.57;;;13.60;78.10;;;;;;5124618;28;20094;-31
2021/12/06 13:07:41;;;;;;;22.97;17.10;;;13.70;77.80;;;;;;5144174;28;20054;-31
2021/12/06 13:10:21;;;;;;;21.10;15.83;;;13.70;77.90;;;;;;5144148;28;20181;-32
2021/12/06 13:13:25;;;;;;;19.60;14.97;;;13.70;78.40;;;;;;5144358;28;20053;-31